createdAt,value
2023-01-17T00:01:14.552Z,38.00
2023-01-17T00:16:17.775Z,30.30
2023-01-17T00:31:21.869Z,32.80
2023-01-17T00:46:43.686Z,25.00
2023-01-17T01:02:05.492Z,26.70
2023-01-17T01:17:27.232Z,32.10
2023-01-17T01:32:52.098Z,29.20
2023-01-17T01:48:15.768Z,20.60
2023-01-17T02:03:26.762Z,16.30
2023-01-17T02:18:42.072Z,19.50
2023-01-17T02:34:00.954Z,21.20
2023-01-17T02:49:04.114Z,14.80
2023-01-17T03:04:15.497Z,12.10
2023-01-17T03:19:18.826Z,12.90
2023-01-17T03:34:22.200Z,15.60
2023-01-17T03:49:25.350Z,13.70
2023-01-17T04:04:28.599Z,16.10
2023-01-17T04:19:34.141Z,18.00
2023-01-17T04:34:37.258Z,14.60
2023-01-17T04:49:41.325Z,18.70
2023-01-17T05:04:45.541Z,22.00
2023-01-17T05:19:48.726Z,26.60
2023-01-17T05:34:52.015Z,71.60
2023-01-17T05:49:55.142Z,45.90
2023-01-17T06:04:58.488Z,32.90
2023-01-17T06:20:01.831Z,46.60
2023-01-17T06:35:05.219Z,52.20
2023-01-17T06:50:13.693Z,36.80
2023-01-17T07:05:17.735Z,35.00
2023-01-17T07:20:20.870Z,73.70
2023-01-17T07:35:26.871Z,98.90
2023-01-17T07:50:30.048Z,57.80
2023-01-17T08:05:33.395Z,31.90
2023-01-17T08:20:36.723Z,30.30
2023-01-17T08:35:39.990Z,51.80
2023-01-17T08:50:43.109Z,44.70
2023-01-17T09:05:46.460Z,41.10
2023-01-17T09:20:49.725Z,27.50
2023-01-17T09:35:52.885Z,32.60
2023-01-17T09:51:14.581Z,23.00
2023-01-17T10:06:43.133Z,27.80
2023-01-17T10:21:59.358Z,20.10
2023-01-17T10:37:21.900Z,32.60
2023-01-17T10:52:48.376Z,17.40
2023-01-17T11:08:03.884Z,16.70
2023-01-17T11:23:12.749Z,19.60
2023-01-17T11:38:20.713Z,18.20
2023-01-17T12:08:33.301Z,14.40
2023-01-17T12:23:55.135Z,27.60
2023-01-17T12:39:01.326Z,18.10
2023-01-17T12:54:18.432Z,18.30
2023-01-17T13:09:23.483Z,19.20
2023-01-17T13:24:33.517Z,10.30
2023-01-17T13:40:00.847Z,11.10
2023-01-17T13:55:07.339Z,9.00
2023-01-17T14:10:28.710Z,12.20
2023-01-17T14:25:39.967Z,13.00
2023-01-17T14:41:00.668Z,35.60
2023-01-17T14:56:15.453Z,33.50
2023-01-17T15:11:24.810Z,23.30
2023-01-17T15:26:33.447Z,43.30
2023-01-17T15:41:40.224Z,26.20
2023-01-17T15:56:45.815Z,12.80
2023-01-17T16:11:49.086Z,43.30
2023-01-17T16:26:52.275Z,27.40
2023-01-17T16:42:02.879Z,73.00
2023-01-17T16:57:06.372Z,39.80
2023-01-17T17:12:09.548Z,45.00
2023-01-17T17:27:12.932Z,46.90
2023-01-17T17:42:16.088Z,20.10
2023-01-17T17:57:19.341Z,31.50
2023-01-17T18:12:33.711Z,32.00
2023-01-17T18:27:39.977Z,62.80
2023-01-17T18:42:43.137Z,88.20
2023-01-17T18:57:46.524Z,45.90
2023-01-17T19:12:50.068Z,41.20
2023-01-17T19:27:53.745Z,47.90
2023-01-17T19:42:57.309Z,95.00
2023-01-17T19:58:00.635Z,120.70
2023-01-17T20:13:04.883Z,55.50
2023-01-17T20:28:08.185Z,69.40
2023-01-17T20:43:12.250Z,52.40
2023-01-17T20:58:16.257Z,68.20
2023-01-17T21:13:20.759Z,75.30
2023-01-17T21:28:29.826Z,34.30
2023-01-17T21:43:33.644Z,22.40
2023-01-17T21:58:45.747Z,24.60
2023-01-17T22:13:49.353Z,30.40
2023-01-17T22:28:53.293Z,75.40
2023-01-17T22:43:58.859Z,31.20
2023-01-17T22:59:02.545Z,36.70
2023-01-17T23:14:08.645Z,42.40
2023-01-17T23:29:11.795Z,36.60
2023-01-17T23:44:15.356Z,108.70
2023-01-17T23:59:18.549Z,169.30
